createdAt,value
2023-05-08T00:01:09.893Z,81.01
2023-05-08T00:03:36.499Z,81.36
2023-05-08T00:06:06.411Z,80.60
2023-05-08T00:08:33.144Z,80.27
2023-05-08T00:10:59.545Z,80.56
2023-05-08T00:13:26.130Z,80.70
2023-05-08T00:15:52.642Z,80.33
2023-05-08T00:18:19.043Z,80.43
2023-05-08T00:20:45.462Z,80.06
2023-05-08T00:23:11.902Z,81.08
2023-05-08T00:25:38.413Z,80.77
2023-05-08T00:28:04.846Z,80.56
2023-05-08T00:30:31.399Z,80.94
2023-05-08T00:32:57.932Z,80.68
2023-05-08T00:35:24.386Z,80.48
2023-05-08T00:37:50.811Z,79.97
2023-05-08T00:40:17.210Z,80.54
2023-05-08T00:42:43.629Z,80.90
2023-05-08T00:45:10.396Z,81.42
2023-05-08T00:47:37.758Z,81.25
2023-05-08T00:50:05.398Z,81.20
2023-05-08T00:52:33.068Z,82.13
2023-05-08T00:55:01.378Z,82.09
2023-05-08T00:57:32.148Z,81.56
2023-05-08T01:00:00.647Z,82.09
2023-05-08T01:02:27.855Z,82.26
2023-05-08T01:04:55.600Z,83.04
2023-05-08T01:07:22.296Z,82.94
2023-05-08T01:09:49.087Z,83.18
2023-05-08T01:12:27.593Z,83.72
2023-05-08T01:15:09.646Z,83.61
2023-05-08T01:17:45.849Z,83.75
2023-05-08T01:20:29.987Z,84.22
2023-05-08T01:23:42.774Z,84.69
2023-05-08T01:26:36.038Z,84.74
2023-05-08T01:29:18.997Z,84.13
2023-05-08T01:32:11.563Z,84.68
2023-05-08T01:34:49.235Z,84.91
2023-05-08T01:37:17.304Z,85.06
2023-05-08T01:39:51.399Z,84.79
2023-05-08T01:42:26.925Z,85.48
2023-05-08T01:45:03.131Z,86.30
2023-05-08T01:47:33.021Z,85.93
2023-05-08T01:50:08.870Z,85.98
2023-05-08T01:52:39.657Z,86.38
2023-05-08T01:55:11.190Z,86.13
2023-05-08T01:57:42.419Z,86.30
2023-05-08T02:00:09.921Z,86.70
2023-05-08T02:02:39.907Z,86.52
2023-05-08T02:05:08.413Z,86.58
2023-05-08T02:07:38.171Z,85.93
2023-05-08T02:10:06.379Z,86.26
2023-05-08T02:12:34.330Z,86.38
2023-05-08T02:15:03.131Z,86.17
2023-05-08T02:17:31.933Z,86.21
2023-05-08T02:20:00.865Z,85.83
2023-05-08T02:22:28.630Z,86.34
2023-05-08T02:24:56.346Z,85.78
2023-05-08T02:27:25.783Z,85.26
2023-05-08T02:29:54.493Z,86.76
2023-05-08T02:32:25.160Z,86.65
2023-05-08T02:35:02.519Z,86.61
2023-05-08T02:37:31.845Z,86.55
2023-05-08T02:39:58.836Z,85.89
2023-05-08T02:42:25.582Z,86.38
2023-05-08T02:44:52.013Z,86.87
2023-05-08T02:47:23.805Z,87.47
2023-05-08T02:50:00.197Z,87.35
2023-05-08T02:52:38.140Z,87.50
2023-05-08T02:55:27.212Z,87.58
2023-05-08T02:58:04.708Z,88.13
2023-05-08T03:00:45.023Z,87.57
2023-05-08T03:03:34.128Z,87.93
2023-05-08T03:06:03.402Z,88.01
2023-05-08T03:08:32.540Z,87.48
2023-05-08T03:11:02.720Z,87.70
2023-05-08T03:13:34.426Z,87.34
2023-05-08T03:16:03.496Z,86.40
2023-05-08T03:18:43.214Z,86.42
2023-05-08T03:21:13.162Z,86.56
2023-05-08T03:23:40.690Z,86.54
2023-05-08T03:26:08.533Z,86.01
2023-05-08T03:28:37.740Z,86.37
2023-05-08T03:31:05.365Z,86.10
2023-05-08T03:33:33.046Z,86.10
2023-05-08T03:35:59.769Z,85.66
2023-05-08T03:38:26.714Z,86.12
2023-05-08T03:40:53.272Z,85.74
2023-05-08T03:43:20.523Z,86.18
2023-05-08T03:45:47.670Z,86.59
2023-05-08T03:48:15.347Z,86.47
2023-05-08T03:50:43.626Z,86.84
2023-05-08T03:53:10.275Z,86.46
2023-05-08T03:55:37.436Z,86.13
2023-05-08T03:58:24.396Z,85.66
2023-05-08T04:01:01.683Z,86.32
2023-05-08T04:04:04.609Z,86.38
2023-05-08T04:06:54.136Z,86.42
2023-05-08T04:09:35.818Z,86.30
2023-05-08T04:12:09.576Z,86.99
2023-05-08T04:14:43.860Z,86.36
2023-05-08T04:17:14.309Z,86.77
2023-05-08T04:19:46.711Z,86.72
2023-05-08T04:22:15.934Z,86.40
2023-05-08T04:24:45.415Z,85.94
2023-05-08T04:27:12.822Z,85.18
2023-05-08T04:29:40.595Z,85.33
2023-05-08T04:32:09.075Z,84.70
2023-05-08T04:34:36.224Z,84.16
2023-05-08T04:37:03.609Z,83.68
2023-05-08T04:39:30.297Z,83.21
2023-05-08T04:42:02.583Z,82.16
2023-05-08T04:44:30.250Z,81.19
2023-05-08T04:46:56.765Z,80.56
2023-05-08T04:49:23.201Z,80.30
2023-05-08T04:51:49.622Z,78.93
2023-05-08T04:54:16.174Z,77.57
2023-05-08T04:56:43.411Z,76.83
2023-05-08T04:59:10.017Z,75.96
2023-05-08T05:01:36.522Z,75.86
2023-05-08T05:04:02.965Z,74.80
2023-05-08T05:06:29.469Z,73.79
2023-05-08T05:08:56.372Z,73.36
2023-05-08T05:11:23.040Z,72.68
2023-05-08T05:13:49.534Z,71.51
2023-05-08T05:16:16.137Z,71.43
2023-05-08T05:18:42.668Z,70.78
2023-05-08T05:21:09.552Z,69.99
2023-05-08T05:23:36.089Z,69.83
2023-05-08T05:26:02.780Z,69.16
2023-05-08T05:28:30.290Z,69.25
2023-05-08T05:30:57.131Z,68.81
2023-05-08T05:33:24.287Z,68.31
2023-05-08T05:35:50.914Z,67.65
2023-05-08T05:38:17.345Z,67.96
2023-05-08T05:40:43.832Z,67.80
2023-05-08T05:43:10.305Z,66.99
2023-05-08T05:45:36.938Z,66.94
2023-05-08T05:48:03.970Z,66.98
2023-05-08T05:50:31.461Z,65.22
2023-05-08T05:52:58.941Z,65.30
2023-05-08T05:55:26.726Z,65.44
2023-05-08T05:57:53.227Z,65.46
2023-05-08T06:00:21.169Z,65.11
2023-05-08T06:02:51.767Z,62.99
2023-05-08T06:05:19.640Z,62.74
2023-05-08T06:07:46.391Z,62.62
2023-05-08T06:10:13.300Z,62.87
2023-05-08T06:12:40.161Z,62.30
2023-05-08T06:15:07.934Z,61.50
2023-05-08T06:17:34.426Z,60.50
2023-05-08T06:20:01.152Z,60.61
2023-05-08T06:22:29.314Z,59.24
2023-05-08T06:24:57.207Z,59.49
2023-05-08T06:27:23.711Z,59.20
2023-05-08T06:29:53.384Z,57.63
2023-05-08T06:32:20.679Z,58.30
2023-05-08T06:34:47.208Z,57.31
2023-05-08T06:37:13.639Z,56.65
2023-05-08T06:39:40.479Z,55.09
2023-05-08T06:42:08.161Z,55.89
2023-05-08T06:44:37.879Z,55.31
2023-05-08T06:47:04.301Z,55.90
2023-05-08T06:49:30.809Z,55.86
2023-05-08T06:51:58.102Z,55.09
2023-05-08T06:54:24.890Z,55.16
2023-05-08T06:56:52.815Z,54.98
2023-05-08T06:59:19.235Z,54.96
2023-05-08T07:01:45.740Z,54.22
2023-05-08T07:04:12.487Z,53.84
2023-05-08T07:06:39.004Z,52.83
2023-05-08T07:09:05.398Z,52.00
2023-05-08T07:11:31.817Z,53.45
2023-05-08T07:13:58.249Z,52.03
2023-05-08T07:16:24.744Z,51.04
2023-05-08T07:18:51.192Z,51.06
2023-05-08T07:21:20.162Z,50.88
2023-05-08T07:23:47.877Z,51.38
2023-05-08T07:26:14.537Z,49.91
2023-05-08T07:28:40.956Z,50.27
2023-05-08T07:31:07.448Z,49.83
2023-05-08T07:33:34.629Z,49.09
2023-05-08T07:36:01.373Z,48.87
2023-05-08T07:38:27.785Z,49.62
2023-05-08T07:40:57.251Z,49.14
2023-05-08T07:43:24.245Z,49.55
2023-05-08T07:45:50.689Z,48.37
2023-05-08T07:48:17.154Z,49.26
2023-05-08T07:50:44.616Z,47.87
2023-05-08T07:53:11.116Z,47.60
2023-05-08T07:55:37.528Z,47.41
2023-05-08T07:58:03.930Z,48.33
2023-05-08T08:00:30.358Z,48.19
2023-05-08T08:02:57.421Z,47.63
2023-05-08T08:05:24.033Z,47.66
2023-05-08T08:07:50.554Z,46.85
2023-05-08T08:10:17.243Z,48.08
2023-05-08T08:12:43.747Z,47.56
2023-05-08T08:15:10.759Z,47.84
2023-05-08T08:17:37.750Z,47.74
2023-05-08T08:20:04.795Z,47.81
2023-05-08T08:22:31.209Z,47.10
2023-05-08T08:24:57.625Z,47.34
2023-05-08T08:27:24.111Z,47.78
2023-05-08T08:29:52.571Z,47.30
2023-05-08T08:32:25.212Z,46.52
2023-05-08T08:34:51.658Z,46.03
2023-05-08T08:37:18.176Z,44.96
2023-05-08T08:39:44.610Z,45.22
2023-05-08T08:42:12.238Z,44.42
2023-05-08T08:44:40.077Z,44.72
2023-05-08T08:47:10.322Z,44.62
2023-05-08T08:49:43.512Z,44.57
2023-05-08T08:52:26.989Z,44.60
2023-05-08T08:54:56.746Z,44.97
2023-05-08T08:57:26.243Z,44.57
2023-05-08T08:59:53.983Z,44.71
2023-05-08T09:02:22.371Z,44.58
2023-05-08T09:04:51.907Z,44.54
2023-05-08T09:07:18.538Z,44.57
2023-05-08T09:09:46.583Z,45.03
2023-05-08T09:12:13.702Z,44.66
2023-05-08T09:14:40.132Z,44.71
2023-05-08T09:17:06.668Z,44.43
2023-05-08T09:19:34.644Z,43.06
2023-05-08T09:22:01.475Z,42.81
2023-05-08T09:24:54.454Z,42.81
2023-05-08T09:27:22.456Z,43.52
2023-05-08T09:30:05.830Z,42.45
2023-05-08T09:32:33.659Z,42.79
2023-05-08T09:35:00.929Z,43.22
2023-05-08T09:37:28.319Z,43.21
2023-05-08T09:39:54.917Z,43.81
2023-05-08T09:42:21.404Z,42.94
2023-05-08T09:44:53.988Z,43.44
2023-05-08T09:47:22.388Z,43.13
2023-05-08T09:50:00.414Z,43.44
2023-05-08T09:52:28.487Z,40.92
2023-05-08T09:54:58.820Z,40.83
2023-05-08T09:57:26.891Z,41.61
2023-05-08T10:00:01.709Z,41.51
2023-05-08T10:02:28.218Z,41.68
2023-05-08T10:04:54.694Z,40.30
2023-05-08T10:07:37.264Z,41.15
2023-05-08T10:10:05.854Z,40.28
2023-05-08T10:12:33.562Z,41.25
2023-05-08T10:14:59.989Z,41.98
2023-05-08T10:17:35.894Z,41.46
2023-05-08T10:20:07.001Z,41.38
2023-05-08T10:22:37.566Z,41.15
2023-05-08T10:25:10.880Z,40.52
2023-05-08T10:27:51.552Z,41.46
2023-05-08T10:30:23.657Z,41.54
2023-05-08T10:32:54.143Z,40.40
2023-05-08T10:35:21.818Z,40.78
2023-05-08T10:37:49.137Z,40.16
2023-05-08T10:40:16.309Z,39.75
2023-05-08T10:42:43.677Z,39.97
2023-05-08T10:45:11.480Z,39.46
2023-05-08T10:47:48.510Z,38.67
2023-05-08T10:50:28.800Z,39.02
2023-05-08T10:53:06.554Z,40.71
2023-05-08T10:55:36.746Z,40.47
2023-05-08T10:58:10.121Z,41.06
2023-05-08T11:01:03.980Z,38.99
2023-05-08T11:03:33.080Z,39.40
2023-05-08T11:06:01.230Z,39.19
2023-05-08T11:08:28.934Z,39.39
2023-05-08T11:11:01.962Z,39.05
2023-05-08T11:14:06.757Z,38.75
2023-05-08T11:16:54.971Z,38.43
2023-05-08T11:19:23.618Z,39.57
2023-05-08T11:22:16.269Z,39.30
2023-05-08T11:25:06.113Z,38.70
2023-05-08T11:27:40.687Z,38.71
2023-05-08T11:30:32.320Z,38.98
2023-05-08T11:33:04.820Z,39.67
2023-05-08T11:35:41.230Z,38.19
2023-05-08T11:38:26.489Z,38.11
2023-05-08T11:41:07.014Z,37.80
2023-05-08T11:43:42.382Z,37.80
2023-05-08T11:46:17.220Z,37.95
2023-05-08T11:48:44.265Z,37.75
2023-05-08T11:51:11.221Z,37.63
2023-05-08T11:53:38.154Z,38.01
2023-05-08T11:56:04.941Z,37.81
2023-05-08T11:58:31.634Z,38.19
2023-05-08T12:00:58.161Z,37.91
2023-05-08T12:03:25.558Z,37.98
2023-05-08T12:05:56.111Z,37.61
2023-05-08T12:08:23.837Z,37.99
2023-05-08T12:10:55.417Z,37.84
2023-05-08T12:13:25.873Z,37.26
2023-05-08T12:15:54.762Z,38.00
2023-05-08T12:18:22.651Z,38.76
2023-05-08T12:21:07.520Z,37.94
2023-05-08T12:23:33.934Z,37.73
2023-05-08T12:26:01.358Z,37.27
2023-05-08T12:28:28.310Z,37.28
2023-05-08T12:30:54.916Z,37.24
2023-05-08T12:33:22.003Z,37.18
2023-05-08T12:35:49.224Z,37.31
2023-05-08T12:38:15.753Z,36.48
2023-05-08T12:40:44.793Z,36.68
2023-05-08T12:43:11.694Z,36.18
2023-05-08T12:45:42.604Z,36.69
2023-05-08T12:48:11.062Z,37.03
2023-05-08T12:50:43.182Z,37.05
2023-05-08T12:53:12.501Z,36.72
2023-05-08T12:55:40.682Z,36.78
2023-05-08T12:58:15.999Z,37.00
2023-05-08T13:00:47.440Z,36.97
2023-05-08T13:03:24.564Z,35.97
2023-05-08T13:05:52.551Z,34.59
2023-05-08T13:08:18.982Z,35.57
2023-05-08T13:10:50.722Z,36.28
2023-05-08T13:13:22.387Z,36.92
2023-05-08T13:15:49.958Z,35.52
2023-05-08T13:18:17.348Z,35.55
2023-05-08T13:20:43.815Z,35.49
2023-05-08T13:23:10.598Z,36.39
2023-05-08T13:25:37.757Z,35.76
2023-05-08T13:28:05.462Z,36.33
2023-05-08T13:30:32.063Z,35.85
2023-05-08T13:32:58.578Z,35.65
2023-05-08T13:35:25.582Z,35.20
2023-05-08T13:37:51.998Z,34.98
2023-05-08T13:40:18.436Z,35.34
2023-05-08T13:42:44.930Z,35.73
2023-05-08T13:45:14.359Z,35.83
2023-05-08T13:47:42.218Z,36.26
2023-05-08T13:50:10.358Z,34.89
2023-05-08T13:52:37.841Z,34.56
2023-05-08T13:55:08.379Z,35.28
2023-05-08T13:57:35.225Z,34.82
2023-05-08T14:00:01.924Z,35.35
2023-05-08T14:02:28.532Z,34.80
2023-05-08T14:04:55.013Z,35.05
2023-05-08T14:07:21.474Z,34.65
2023-05-08T14:09:47.942Z,34.60
2023-05-08T14:12:14.457Z,35.37
2023-05-08T14:14:40.904Z,35.02
2023-05-08T14:17:07.561Z,35.20
2023-05-08T14:19:34.569Z,35.38
2023-05-08T14:22:01.017Z,35.22
2023-05-08T14:24:27.417Z,34.91
2023-05-08T14:26:54.412Z,34.47
2023-05-08T14:29:20.942Z,34.90
2023-05-08T14:31:47.422Z,35.75
2023-05-08T14:34:13.882Z,35.73
2023-05-08T14:36:40.298Z,35.70
2023-05-08T14:39:06.701Z,35.52
2023-05-08T14:41:33.866Z,35.20
2023-05-08T14:44:01.198Z,34.59
2023-05-08T14:46:27.651Z,35.59
2023-05-08T14:48:54.898Z,34.82
2023-05-08T14:51:22.715Z,35.18
2023-05-08T14:53:49.276Z,35.71
2023-05-08T14:56:16.253Z,35.56
2023-05-08T14:58:42.756Z,34.55
2023-05-08T15:01:09.184Z,35.46
2023-05-08T15:03:35.808Z,35.32
2023-05-08T15:06:02.370Z,35.24
2023-05-08T15:08:28.802Z,35.26
2023-05-08T15:10:55.240Z,35.05
2023-05-08T15:13:21.698Z,35.14
2023-05-08T15:15:48.165Z,35.32
2023-05-08T15:18:14.574Z,35.42
2023-05-08T15:20:41.103Z,35.63
2023-05-08T15:23:07.550Z,35.83
2023-05-08T15:25:33.977Z,35.61
2023-05-08T15:28:01.060Z,35.24
2023-05-08T15:30:27.779Z,34.67
2023-05-08T15:32:54.305Z,34.91
2023-05-08T15:35:20.856Z,35.08
2023-05-08T15:37:47.293Z,35.01
2023-05-08T15:40:13.759Z,35.05
2023-05-08T15:42:40.184Z,35.23
2023-05-08T15:45:07.062Z,35.22
2023-05-08T15:47:33.592Z,35.70
2023-05-08T15:50:00.036Z,35.23
2023-05-08T15:52:26.451Z,35.64
2023-05-08T15:54:52.910Z,35.76
2023-05-08T15:57:19.319Z,35.50
2023-05-08T15:59:45.720Z,35.33
2023-05-08T16:02:12.190Z,35.62
2023-05-08T16:04:38.690Z,35.61
2023-05-08T16:07:05.135Z,36.11
2023-05-08T16:09:31.595Z,36.10
2023-05-08T16:11:58.024Z,35.84
2023-05-08T16:14:24.431Z,36.06
2023-05-08T16:16:50.855Z,35.97
2023-05-08T16:19:17.279Z,36.05
2023-05-08T16:21:47.608Z,35.88
2023-05-08T16:24:14.487Z,35.81
2023-05-08T16:26:41.224Z,36.22
2023-05-08T16:29:07.635Z,36.58
2023-05-08T16:31:34.116Z,36.39
2023-05-08T16:34:00.702Z,36.64
2023-05-08T16:36:27.594Z,36.78
2023-05-08T16:38:54.097Z,36.48
2023-05-08T16:41:21.474Z,36.67
2023-05-08T16:43:47.935Z,36.09
2023-05-08T16:46:14.420Z,36.50
2023-05-08T16:48:42.243Z,36.26
2023-05-08T16:51:08.685Z,36.43
2023-05-08T16:53:35.147Z,35.95
2023-05-08T16:56:01.584Z,36.39
2023-05-08T16:58:28.064Z,36.38
2023-05-08T17:00:54.540Z,36.31
2023-05-08T17:03:21.102Z,36.43
2023-05-08T17:05:47.613Z,36.59
2023-05-08T17:08:14.042Z,36.98
2023-05-08T17:10:41.436Z,36.77
2023-05-08T17:13:07.949Z,37.12
2023-05-08T17:15:34.426Z,37.15
2023-05-08T17:18:00.994Z,37.30
2023-05-08T17:20:27.556Z,37.54
2023-05-08T17:22:54.282Z,37.26
2023-05-08T17:25:22.372Z,37.40
2023-05-08T17:27:48.828Z,37.42
2023-05-08T17:30:16.853Z,37.04
2023-05-08T17:32:43.454Z,37.06
2023-05-08T17:35:10.374Z,37.47
2023-05-08T17:37:36.896Z,37.63
2023-05-08T17:40:03.669Z,37.67
2023-05-08T17:42:30.212Z,37.20
2023-05-08T17:44:56.653Z,37.16
2023-05-08T17:47:23.142Z,37.03
2023-05-08T17:49:49.700Z,37.63
2023-05-08T17:52:16.109Z,37.34
2023-05-08T17:54:42.550Z,37.03
2023-05-08T17:57:08.942Z,36.70
2023-05-08T17:59:35.356Z,37.16
2023-05-08T18:02:01.818Z,36.54
2023-05-08T18:04:28.324Z,36.95
2023-05-08T18:06:54.741Z,37.25
2023-05-08T18:09:21.147Z,37.46
2023-05-08T18:11:47.560Z,37.50
2023-05-08T18:14:13.983Z,37.90
2023-05-08T18:16:40.395Z,37.85
2023-05-08T18:19:06.834Z,37.67
2023-05-08T18:21:33.286Z,38.24
2023-05-08T18:23:59.704Z,38.30
2023-05-08T18:26:26.116Z,37.82
2023-05-08T18:28:52.589Z,38.41
2023-05-08T18:31:19.169Z,38.50
2023-05-08T18:33:45.830Z,38.12
2023-05-08T18:36:12.274Z,38.22
2023-05-08T18:38:38.709Z,38.73
2023-05-08T18:41:05.960Z,38.53
2023-05-08T18:43:32.397Z,38.33
2023-05-08T18:46:00.530Z,38.50
2023-05-08T18:48:27.271Z,38.48
2023-05-08T18:50:55.755Z,38.63
2023-05-08T18:53:22.155Z,38.82
2023-05-08T18:55:48.564Z,38.79
2023-05-08T18:58:15.012Z,39.04
2023-05-08T19:00:41.472Z,39.21
2023-05-08T19:03:07.990Z,39.62
2023-05-08T19:05:34.485Z,39.54
2023-05-08T19:08:00.931Z,39.65
2023-05-08T19:10:27.445Z,39.79
2023-05-08T19:12:53.898Z,40.23
2023-05-08T19:15:20.329Z,40.12
2023-05-08T19:17:46.981Z,40.38
2023-05-08T19:20:13.841Z,40.60
2023-05-08T19:22:40.612Z,40.57
2023-05-08T19:25:07.316Z,40.97
2023-05-08T19:27:33.792Z,41.11
2023-05-08T19:30:00.252Z,41.33
2023-05-08T19:32:27.601Z,41.44
2023-05-08T19:34:57.248Z,41.82
2023-05-08T19:37:24.600Z,41.82
2023-05-08T19:39:50.988Z,42.09
2023-05-08T19:42:17.392Z,42.31
2023-05-08T19:44:43.787Z,42.37
2023-05-08T19:47:10.255Z,42.64
2023-05-08T19:49:36.728Z,42.75
2023-05-08T19:52:03.153Z,42.78
2023-05-08T19:54:30.811Z,42.91
2023-05-08T19:56:58.060Z,43.37
2023-05-08T19:59:24.497Z,43.45
2023-05-08T20:01:50.954Z,43.47
2023-05-08T20:04:17.639Z,43.55
2023-05-08T20:06:44.085Z,43.78
2023-05-08T20:09:10.574Z,43.69
2023-05-08T20:11:36.971Z,43.73
2023-05-08T20:14:03.469Z,44.16
2023-05-08T20:16:29.956Z,44.26
2023-05-08T20:18:56.685Z,44.57
2023-05-08T20:21:23.141Z,44.48
2023-05-08T20:23:49.581Z,44.97
2023-05-08T20:26:15.990Z,45.16
2023-05-08T20:28:42.393Z,45.52
2023-05-08T20:31:09.055Z,45.73
2023-05-08T20:33:35.504Z,46.11
2023-05-08T20:36:02.095Z,46.29
2023-05-08T20:38:28.590Z,46.83
2023-05-08T20:40:59.299Z,47.24
2023-05-08T20:43:27.453Z,47.37
2023-05-08T20:45:53.947Z,47.47
2023-05-08T20:48:20.420Z,47.84
2023-05-08T20:50:49.677Z,48.29
2023-05-08T20:53:16.178Z,48.24
2023-05-08T20:55:42.619Z,48.56
2023-05-08T20:58:09.100Z,49.15
2023-05-08T21:00:36.009Z,49.35
2023-05-08T21:03:02.898Z,49.29
2023-05-08T21:05:29.359Z,49.82
2023-05-08T21:07:59.855Z,49.92
2023-05-08T21:10:28.729Z,49.89
2023-05-08T21:12:55.282Z,50.56
2023-05-08T21:15:21.852Z,50.45
2023-05-08T21:17:48.385Z,50.56
2023-05-08T21:20:15.055Z,51.14
2023-05-08T21:22:41.763Z,51.42
2023-05-08T21:25:15.233Z,50.99
2023-05-08T21:27:42.612Z,51.38
2023-05-08T21:30:14.740Z,51.75
2023-05-08T21:32:42.538Z,51.66
2023-05-08T21:35:10.335Z,51.81
2023-05-08T21:37:37.004Z,52.01
2023-05-08T21:40:04.604Z,52.01
2023-05-08T21:42:31.889Z,52.18
2023-05-08T21:44:58.835Z,52.68
2023-05-08T21:47:27.982Z,52.62
2023-05-08T21:49:55.000Z,52.89
2023-05-08T21:52:22.634Z,53.46
2023-05-08T21:54:49.895Z,53.12
2023-05-08T21:57:16.640Z,52.99
2023-05-08T21:59:43.071Z,53.52
2023-05-08T22:02:09.654Z,53.45
2023-05-08T22:04:36.182Z,53.89
2023-05-08T22:07:02.598Z,54.39
2023-05-08T22:09:29.038Z,53.91
2023-05-08T22:11:55.532Z,55.08
2023-05-08T22:14:22.046Z,54.60
2023-05-08T22:16:48.533Z,54.38
2023-05-08T22:19:15.140Z,55.36
2023-05-08T22:21:42.302Z,55.11
2023-05-08T22:24:08.724Z,55.07
2023-05-08T22:26:35.442Z,55.25
2023-05-08T22:29:01.891Z,56.11
2023-05-08T22:31:28.319Z,55.67
2023-05-08T22:33:54.794Z,55.73
2023-05-08T22:36:23.795Z,55.07
2023-05-08T22:38:50.507Z,55.37
2023-05-08T22:41:17.017Z,56.14
2023-05-08T22:43:43.533Z,55.97
2023-05-08T22:46:10.185Z,56.00
2023-05-08T22:48:37.535Z,55.60
2023-05-08T22:51:04.499Z,56.70
2023-05-08T22:53:30.953Z,56.56
2023-05-08T22:55:57.401Z,57.20
2023-05-08T22:58:25.202Z,56.74
2023-05-08T23:00:51.926Z,57.26
2023-05-08T23:03:18.476Z,57.60
2023-05-08T23:05:44.901Z,57.48
2023-05-08T23:08:11.311Z,57.93
2023-05-08T23:10:37.739Z,57.93
2023-05-08T23:13:04.214Z,57.53
2023-05-08T23:15:30.737Z,56.82
2023-05-08T23:17:57.167Z,57.52
2023-05-08T23:20:23.673Z,57.45
2023-05-08T23:22:50.071Z,58.17
2023-05-08T23:25:16.778Z,57.80
2023-05-08T23:27:43.310Z,57.53
2023-05-08T23:30:13.038Z,58.34
2023-05-08T23:32:39.926Z,58.90
2023-05-08T23:35:06.879Z,58.48
2023-05-08T23:37:33.310Z,59.18
2023-05-08T23:39:59.727Z,58.57
2023-05-08T23:42:26.390Z,59.22
2023-05-08T23:44:52.843Z,58.40
2023-05-08T23:47:20.855Z,58.65
2023-05-08T23:49:47.490Z,58.70
2023-05-08T23:52:14.278Z,59.14
2023-05-08T23:54:40.740Z,59.57
2023-05-08T23:57:07.190Z,59.84
2023-05-08T23:59:33.643Z,59.84
